Nagpur, India

4:30 PM IST on September 22, 2014 (GMT +0530)
Nagpur | Change Station
CLOSE
Current Station
Airport
Location: Nagpur Sonegaon,
Elevation: 1017 ft
Nearby Weather Stations

Elev 1017 ft 21.09 °N, 79.06 °E | Updated 1 hour ago

Haze
Haze
91 °F
Feels Like 102 °F
N
5
Wind Variable Wind from North

Today
High -- | Low -- °F
--% Chance of Precip.
Yesterday
High -- | Low -- °F
Precip. -- in
6:02 AM 6:10 PM
Waning Crescent, 3% visible
Pressure 29.74 in
Visibility 3.1 miles
Clouds Scattered Clouds 10000 ft
Few 3000 ft
Heat Index 102 °F
Dew Point 75 °F
Humidity 59%
Rainfall 0.00 in
Snow Depth Not available.
UV 7 out of 12
Pollen Not available.
Air Quality Not available.
Flu Activity Not available.
METAR VANP 220940Z 35004KT 5000 HZ SCT020 FEW030CB NE SCT100 33/24 Q1007 NOSIG

More Conditions Fewer Conditions

Pressure 29.74 in
Visibility 3.1 miles
Clouds Scattered Clouds 10000 ft
Few 3000 ft
Heat Index 102 °F
Dew Point 75 °F
Humidity 59%
Rainfall 0.00 in
Snow Depth Not available.
UV 7 out of 12
Pollen Not available.
Air Quality Not available.
Flu Activity Not available.
METAR VANP 220940Z 35004KT 5000 HZ SCT020 FEW030CB NE SCT100 33/24 Q1007 NOSIG

More Conditions Fewer Conditions

10-Day Weather Forecast

Almanac

Astronomy

Sep. 22, 2014 Rise Set
Actual Time 6:02 AM IST 6:10 PM IST
Civil Twilight 5:40 AM IST 6:32 PM IST
Nautical Twilight 5:14 AM IST 6:58 PM IST
Astronomical Twilight 4:48 AM IST 7:23 PM IST
Moon 4:16 AM IST 4:55 PM IST
Length of Visible Light 12h 52m
Length of Day
12h 07m
Tomorrow will be 1m 12s shorter.
Waning Crescent, 3% of the Moon is Illuminated
Today
Waning Crescent
Sep 24
New
Oct 1
First Quarter
Oct 8
Full
Oct 15
Last Quarter

Yesterday's Extremes

Country Highs Country Lows

Community

WunderPhotos

Upload Photos

1,755,408 photos uploaded!

Nearby

Snow Depth

Not available.

Earthquake Activity

City Distance Mag. Time & Date
No recent earthquake activity has been reported nearby.
Minimum magnitude displayed is 2.5.

Coastal Water Temperatures

Place Temperature
No Stations Reporting

Nearby Weather Stations